createdAt,value
2017-11-08T00:01:29.258Z,35.30
2017-11-08T00:03:56.822Z,40.33
2017-11-08T00:06:24.397Z,41.47
2017-11-08T00:08:52.704Z,35.90
2017-11-08T00:11:20.381Z,40.13
2017-11-08T00:13:47.940Z,36.73
2017-11-08T00:16:15.521Z,39.77
2017-11-08T00:18:43.075Z,36.43
2017-11-08T00:21:10.627Z,36.63
2017-11-08T00:23:41.103Z,39.50
2017-11-08T00:26:08.653Z,36.07
2017-11-08T00:28:36.218Z,39.23
2017-11-08T00:31:03.782Z,37.07
2017-11-08T00:33:31.337Z,39.30
2017-11-08T00:35:59.110Z,39.50
2017-11-08T00:38:27.442Z,36.97
2017-11-08T00:40:55.006Z,40.67
2017-11-08T00:43:22.555Z,38.07
2017-11-08T00:45:50.131Z,38.77
2017-11-08T00:48:17.687Z,34.63
2017-11-08T00:50:45.241Z,40.20
2017-11-08T00:53:21.655Z,40.70
2017-11-08T00:55:50.050Z,37.33
2017-11-08T00:58:18.420Z,36.20
2017-11-08T01:00:46.939Z,39.37
2017-11-08T01:03:14.495Z,37.57
2017-11-08T01:05:42.054Z,38.93
2017-11-08T01:08:09.660Z,36.43
2017-11-08T01:10:37.261Z,43.30
2017-11-08T01:13:04.824Z,43.53
2017-11-08T01:15:32.422Z,40.40
2017-11-08T01:18:00.027Z,41.77
2017-11-08T01:20:28.496Z,37.83
2017-11-08T01:22:56.827Z,41.80
2017-11-08T01:25:24.394Z,36.20
2017-11-08T01:27:51.934Z,36.07
2017-11-08T01:30:19.500Z,38.23
2017-11-08T01:32:47.848Z,37.23
2017-11-08T01:35:17.018Z,44.03
2017-11-08T01:37:46.560Z,38.30
2017-11-08T01:40:14.872Z,32.50
2017-11-08T01:42:42.447Z,33.00
2017-11-08T01:45:10.005Z,32.00
2017-11-08T01:47:37.574Z,32.30
2017-11-08T01:50:05.133Z,32.37
2017-11-08T01:52:32.683Z,34.63
2017-11-08T01:55:00.248Z,31.40
2017-11-08T01:57:27.834Z,32.80
2017-11-08T01:59:55.411Z,33.33
2017-11-08T02:02:23.708Z,37.40
2017-11-08T02:04:51.269Z,36.67
2017-11-08T02:07:18.830Z,36.00
2017-11-08T02:09:46.389Z,32.70
2017-11-08T02:12:13.962Z,35.30
2017-11-08T02:14:41.507Z,34.50
2017-11-08T02:17:09.089Z,33.00
2017-11-08T02:19:36.635Z,36.50
2017-11-08T02:22:04.209Z,34.90
2017-11-08T02:24:31.843Z,38.77
2017-11-08T02:27:06.147Z,36.17
2017-11-08T02:29:34.467Z,30.93
2017-11-08T02:32:02.074Z,33.63
2017-11-08T02:34:29.617Z,33.53
2017-11-08T02:36:57.165Z,36.60
2017-11-08T02:39:24.717Z,37.17
2017-11-08T02:41:52.257Z,37.17
2017-11-08T02:44:19.809Z,30.00
2017-11-08T02:46:58.192Z,34.20
2017-11-08T02:49:25.749Z,34.07
2017-11-08T02:51:53.286Z,32.00
2017-11-08T02:54:23.774Z,37.60
2017-11-08T02:56:51.340Z,31.80
2017-11-08T02:59:18.898Z,31.80
2017-11-08T03:01:46.459Z,32.43
2017-11-08T03:04:14.036Z,32.63
2017-11-08T03:06:41.602Z,33.87
2017-11-08T03:09:09.175Z,34.90
2017-11-08T03:11:36.728Z,32.30
2017-11-08T03:14:04.285Z,32.47
2017-11-08T03:16:31.826Z,28.00
2017-11-08T03:18:59.389Z,31.70
2017-11-08T03:21:26.966Z,31.50
2017-11-08T03:23:54.544Z,33.63
2017-11-08T03:26:22.088Z,31.27
2017-11-08T03:28:49.653Z,32.40
2017-11-08T03:31:17.230Z,35.67
2017-11-08T03:33:44.800Z,37.93
2017-11-08T03:36:13.285Z,33.73
2017-11-08T03:38:40.860Z,37.00
2017-11-08T03:41:09.198Z,34.10
2017-11-08T03:43:36.755Z,37.97
2017-11-08T03:46:04.329Z,32.40
2017-11-08T03:48:31.876Z,38.43
2017-11-08T03:50:59.457Z,35.00
2017-11-08T03:53:27.020Z,34.93
2017-11-08T03:55:54.587Z,38.77
2017-11-08T03:58:22.924Z,35.03
2017-11-08T04:00:50.493Z,34.23
2017-11-08T04:03:18.041Z,35.63
2017-11-08T04:05:45.594Z,39.73
2017-11-08T04:08:13.126Z,33.13
2017-11-08T04:10:40.693Z,35.50
2017-11-08T04:13:08.265Z,36.07
2017-11-08T04:15:35.814Z,38.43
2017-11-08T04:18:03.398Z,38.40
2017-11-08T04:20:30.948Z,39.70
2017-11-08T04:22:58.505Z,37.80
2017-11-08T04:25:26.079Z,35.83
2017-11-08T04:27:53.609Z,34.93
2017-11-08T04:30:21.183Z,38.20
2017-11-08T04:32:48.752Z,36.83
2017-11-08T04:35:16.308Z,38.13
2017-11-08T04:37:43.873Z,39.10
2017-11-08T04:40:11.437Z,38.30
2017-11-08T04:42:38.998Z,36.03
2017-11-08T04:45:06.585Z,36.70
2017-11-08T04:47:34.134Z,34.83
2017-11-08T04:50:01.711Z,37.13
2017-11-08T04:52:29.274Z,35.67
2017-11-08T04:54:56.811Z,40.77
2017-11-08T04:57:24.368Z,36.40
2017-11-08T04:59:51.929Z,42.47
2017-11-08T05:02:19.481Z,42.40
2017-11-08T05:04:47.825Z,42.53
2017-11-08T05:07:15.378Z,43.17
2017-11-08T05:09:42.946Z,40.93
2017-11-08T05:12:10.541Z,43.60
2017-11-08T05:14:38.096Z,37.63
2017-11-08T05:17:05.662Z,38.07
2017-11-08T05:19:33.202Z,40.73
2017-11-08T05:22:00.768Z,45.07
2017-11-08T05:24:36.283Z,45.00
2017-11-08T05:27:04.602Z,45.63
2017-11-08T05:29:41.405Z,46.17
2017-11-08T05:32:25.853Z,47.60
2017-11-08T05:34:53.422Z,49.07
2017-11-08T05:37:20.983Z,50.13
2017-11-08T05:39:48.570Z,47.42
2017-11-08T05:42:16.127Z,54.45
2017-11-08T05:44:43.702Z,48.90
2017-11-08T05:47:11.283Z,47.25
2017-11-08T05:49:38.871Z,44.73
2017-11-08T05:52:06.421Z,50.43
2017-11-08T05:54:34.758Z,49.10
2017-11-08T05:57:02.318Z,49.07
2017-11-08T05:59:29.892Z,52.10
2017-11-08T06:01:57.439Z,47.40
2017-11-08T06:04:24.990Z,47.13
2017-11-08T06:06:52.541Z,41.13
2017-11-08T06:09:20.094Z,53.47
2017-11-08T06:11:47.670Z,43.20
2017-11-08T06:14:15.230Z,41.57
2017-11-08T06:16:42.784Z,41.90
2017-11-08T06:19:10.333Z,39.80
2017-11-08T06:21:37.928Z,44.80
2017-11-08T06:24:05.465Z,43.57
2017-11-08T06:26:33.073Z,43.90
2017-11-08T06:29:01.391Z,46.90
2017-11-08T06:31:28.938Z,43.13
2017-11-08T06:33:56.487Z,52.60
2017-11-08T06:36:24.785Z,55.03
2017-11-08T06:38:52.354Z,53.27
2017-11-08T06:41:20.682Z,56.83
2017-11-08T06:43:49.010Z,51.63
2017-11-08T06:46:16.563Z,54.77
2017-11-08T06:48:44.125Z,52.70
2017-11-08T06:51:11.691Z,64.93
2017-11-08T06:53:43.230Z,61.13
2017-11-08T06:56:10.780Z,54.63
2017-11-08T06:58:38.334Z,46.63
2017-11-08T07:01:05.873Z,52.47
2017-11-08T07:03:34.194Z,51.13
2017-11-08T07:06:01.756Z,58.90
2017-11-08T07:08:31.322Z,54.07
2017-11-08T07:10:59.653Z,60.97
2017-11-08T07:13:27.196Z,63.40
2017-11-08T07:15:54.768Z,53.50
2017-11-08T07:18:22.323Z,55.70
2017-11-08T07:20:50.354Z,52.53
2017-11-08T07:23:18.694Z,55.00
2017-11-08T07:25:46.267Z,53.00
2017-11-08T07:28:14.654Z,50.67
2017-11-08T07:30:42.211Z,54.10
2017-11-08T07:33:09.826Z,49.50
2017-11-08T07:35:37.361Z,53.30
2017-11-08T07:38:04.975Z,52.00
2017-11-08T07:40:32.513Z,46.80
2017-11-08T07:43:00.069Z,51.37
2017-11-08T07:45:27.650Z,52.60
2017-11-08T07:47:55.198Z,50.67
2017-11-08T07:50:22.765Z,47.67
2017-11-08T07:52:50.325Z,48.93
2017-11-08T07:55:37.793Z,48.23
2017-11-08T07:58:06.158Z,53.03
2017-11-08T08:00:33.768Z,45.30
2017-11-08T08:03:01.331Z,52.63
2017-11-08T08:05:28.991Z,47.83
2017-11-08T08:07:57.551Z,52.03
2017-11-08T08:10:25.129Z,59.80
2017-11-08T08:12:52.725Z,50.40
2017-11-08T08:15:20.294Z,46.17
2017-11-08T08:17:47.917Z,51.73
2017-11-08T08:20:15.458Z,56.93
2017-11-08T08:22:43.014Z,52.17
2017-11-08T08:25:10.579Z,47.83
2017-11-08T08:27:38.186Z,47.30
2017-11-08T08:30:05.820Z,53.40
2017-11-08T08:32:33.389Z,47.57
2017-11-08T08:35:00.975Z,45.40
2017-11-08T08:37:28.509Z,44.87
2017-11-08T08:39:56.059Z,44.33
2017-11-08T08:42:23.625Z,41.63
2017-11-08T08:44:51.177Z,41.33
2017-11-08T08:47:19.178Z,41.73
2017-11-08T08:49:46.761Z,46.97
2017-11-08T08:52:14.328Z,42.80
2017-11-08T08:54:42.671Z,43.57
2017-11-08T08:57:10.243Z,45.57
2017-11-08T08:59:37.809Z,41.03
2017-11-08T09:02:11.118Z,44.23
2017-11-08T09:04:39.457Z,51.53
2017-11-08T09:07:07.019Z,49.90
2017-11-08T09:09:34.586Z,42.00
2017-11-08T09:12:02.140Z,49.90
2017-11-08T09:14:29.669Z,54.03
2017-11-08T09:16:57.226Z,50.93
2017-11-08T09:19:24.817Z,49.83
2017-11-08T09:21:52.424Z,52.73
2017-11-08T09:24:20.754Z,56.43
2017-11-08T09:26:48.390Z,67.83
2017-11-08T09:29:17.776Z,87.27
2017-11-08T09:31:46.093Z,81.70
2017-11-08T09:34:13.680Z,75.33
2017-11-08T09:36:41.235Z,54.63
2017-11-08T09:39:08.802Z,36.83
2017-11-08T09:41:36.372Z,45.97
2017-11-08T09:44:03.907Z,31.87
2017-11-08T09:46:31.493Z,37.13
2017-11-08T09:48:59.054Z,31.70
2017-11-08T09:51:26.608Z,31.90
2017-11-08T09:53:54.227Z,54.93
2017-11-08T09:56:21.772Z,38.10
2017-11-08T09:58:50.142Z,63.63
2017-11-08T10:01:23.652Z,50.40
2017-11-08T10:03:51.204Z,45.97
2017-11-08T10:06:19.521Z,61.80
2017-11-08T10:08:47.073Z,66.80
2017-11-08T10:11:18.085Z,41.33
2017-11-08T10:13:45.631Z,32.70
2017-11-08T10:16:18.858Z,24.93
2017-11-08T10:18:46.417Z,36.50
2017-11-08T10:21:13.990Z,31.70
2017-11-08T10:23:41.528Z,24.53
2017-11-08T10:26:09.076Z,34.50
2017-11-08T10:28:36.614Z,78.07
2017-11-08T10:31:04.952Z,55.00
2017-11-08T10:33:32.499Z,29.10
2017-11-08T10:36:00.062Z,47.27
2017-11-08T10:38:27.605Z,52.03
2017-11-08T10:40:55.182Z,31.33
2017-11-08T10:43:22.699Z,44.30
2017-11-08T10:45:50.279Z,36.40
2017-11-08T10:48:17.861Z,30.77
2017-11-08T10:50:45.409Z,33.93
2017-11-08T10:53:12.985Z,27.47
2017-11-08T10:55:40.552Z,31.73
2017-11-08T10:58:08.930Z,29.07
2017-11-08T11:00:37.413Z,27.53
2017-11-08T11:03:06.750Z,23.50
2017-11-08T11:05:34.306Z,35.53
2017-11-08T11:08:01.881Z,30.30
2017-11-08T11:10:29.485Z,32.13
2017-11-08T11:13:04.664Z,25.57
2017-11-08T11:15:32.244Z,30.13
2017-11-08T11:17:59.809Z,33.00
2017-11-08T11:20:28.173Z,43.90
2017-11-08T11:22:55.746Z,31.63
2017-11-08T11:25:23.411Z,37.37
2017-11-08T11:27:50.987Z,30.23
2017-11-08T11:30:24.085Z,31.33
2017-11-08T11:32:51.684Z,53.03
2017-11-08T11:35:20.029Z,49.77
2017-11-08T11:37:47.648Z,37.60
2017-11-08T11:40:15.241Z,27.80
2017-11-08T11:42:42.798Z,32.70
2017-11-08T11:45:10.373Z,28.20
2017-11-08T11:47:37.972Z,25.03
2017-11-08T11:50:06.323Z,29.57
2017-11-08T11:52:33.890Z,22.33
2017-11-08T11:55:01.512Z,20.60
2017-11-08T11:57:29.068Z,39.80
2017-11-08T11:59:56.649Z,28.23
2017-11-08T12:02:24.224Z,23.63
2017-11-08T12:04:51.803Z,19.50
2017-11-08T12:07:19.423Z,15.70
2017-11-08T12:09:46.977Z,17.40
2017-11-08T12:12:14.556Z,29.87
2017-11-08T12:14:42.124Z,43.30
2017-11-08T12:17:09.764Z,23.63
2017-11-08T12:19:38.295Z,22.40
2017-11-08T12:22:06.619Z,27.40
2017-11-08T12:24:34.198Z,27.40
2017-11-08T12:27:05.694Z,19.77
2017-11-08T12:29:36.944Z,23.47
2017-11-08T12:32:05.263Z,19.17
2017-11-08T12:34:32.840Z,27.67
2017-11-08T12:37:00.409Z,19.90
2017-11-08T12:39:27.983Z,31.93
2017-11-08T12:41:55.591Z,17.97
2017-11-08T12:44:26.072Z,15.97
2017-11-08T12:46:53.648Z,14.93
2017-11-08T12:49:21.984Z,21.03
2017-11-08T12:51:49.550Z,22.83
2017-11-08T12:54:17.152Z,15.27
2017-11-08T12:56:45.520Z,14.73
2017-11-08T12:59:13.891Z,17.00
2017-11-08T13:01:42.498Z,59.67
2017-11-08T13:04:10.860Z,26.17
2017-11-08T13:06:38.675Z,24.63
2017-11-08T13:09:06.248Z,17.50
2017-11-08T13:11:35.750Z,19.07
2017-11-08T13:14:03.314Z,18.47
2017-11-08T13:16:30.875Z,21.53
2017-11-08T13:18:58.642Z,19.50
2017-11-08T13:21:26.180Z,15.73
2017-11-08T13:23:54.082Z,17.47
2017-11-08T13:26:21.661Z,26.37
2017-11-08T13:28:49.243Z,20.77
2017-11-08T13:31:16.823Z,15.40
2017-11-08T13:33:45.178Z,15.30
2017-11-08T13:36:12.779Z,32.13
2017-11-08T13:38:40.337Z,19.70
2017-11-08T13:41:07.935Z,15.43
2017-11-08T13:43:35.522Z,22.70
2017-11-08T13:46:03.907Z,18.37
2017-11-08T13:48:32.269Z,20.73
2017-11-08T13:50:59.851Z,17.83
2017-11-08T13:53:28.247Z,20.90
2017-11-08T13:55:56.583Z,14.77
2017-11-08T13:58:25.086Z,17.03
2017-11-08T14:00:52.661Z,19.27
2017-11-08T14:03:21.018Z,18.77
2017-11-08T14:05:48.579Z,16.20
2017-11-08T14:08:16.138Z,17.87
2017-11-08T14:10:43.701Z,18.03
2017-11-08T14:13:11.304Z,20.03
2017-11-08T14:15:38.871Z,19.40
2017-11-08T14:18:06.488Z,16.13
2017-11-08T14:20:34.042Z,16.50
2017-11-08T14:23:01.580Z,20.37
2017-11-08T14:25:29.172Z,18.30
2017-11-08T14:27:57.497Z,17.40
2017-11-08T14:30:25.089Z,18.80
2017-11-08T14:32:52.667Z,18.97
2017-11-08T14:35:20.218Z,17.93
2017-11-08T14:37:55.328Z,17.30
2017-11-08T14:40:22.974Z,20.60
2017-11-08T14:42:52.337Z,18.43
2017-11-08T14:45:20.680Z,19.20
2017-11-08T14:47:48.231Z,19.57
2017-11-08T14:50:15.799Z,14.67
2017-11-08T14:52:43.336Z,17.27
2017-11-08T14:55:11.686Z,17.80
2017-11-08T14:57:40.034Z,21.57
2017-11-08T15:00:07.592Z,17.33
2017-11-08T15:02:35.188Z,20.73
2017-11-08T15:05:03.566Z,17.00
2017-11-08T15:07:31.889Z,18.50
2017-11-08T15:10:00.209Z,16.03
2017-11-08T15:12:34.103Z,14.70
2017-11-08T15:15:02.479Z,18.17
2017-11-08T15:17:30.106Z,19.50
2017-11-08T15:19:59.677Z,19.70
2017-11-08T15:22:27.998Z,17.20
2017-11-08T15:24:55.589Z,15.60
2017-11-08T15:27:23.151Z,22.23
2017-11-08T15:29:53.593Z,14.97
2017-11-08T15:32:21.938Z,17.00
2017-11-08T15:34:49.534Z,16.30
2017-11-08T15:37:17.830Z,17.70
2017-11-08T15:40:03.027Z,17.33
2017-11-08T15:42:30.577Z,20.20
2017-11-08T15:44:58.213Z,20.13
2017-11-08T15:47:27.049Z,16.33
2017-11-08T15:49:55.469Z,19.83
2017-11-08T15:52:23.451Z,19.07
2017-11-08T15:54:51.595Z,21.00
2017-11-08T15:57:19.196Z,17.30
2017-11-08T15:59:47.299Z,19.40
2017-11-08T16:02:18.798Z,22.10
2017-11-08T16:04:47.159Z,20.20
2017-11-08T16:07:14.838Z,22.53
2017-11-08T16:09:44.397Z,23.20
2017-11-08T16:12:12.820Z,23.37
2017-11-08T16:14:40.590Z,25.17
2017-11-08T16:17:12.068Z,21.57
2017-11-08T16:19:41.319Z,21.90
2017-11-08T16:22:08.919Z,21.10
2017-11-08T16:24:57.717Z,27.63
2017-11-08T16:27:26.225Z,23.00
2017-11-08T16:29:53.784Z,29.13
2017-11-08T16:32:21.374Z,35.67
2017-11-08T16:34:49.724Z,32.33
2017-11-08T16:37:17.365Z,33.93
2017-11-08T16:39:44.965Z,33.38
2017-11-08T16:42:12.519Z,32.77
2017-11-08T16:44:40.108Z,35.80
2017-11-08T16:47:08.449Z,31.80
2017-11-08T16:49:36.014Z,34.40
2017-11-08T16:52:03.608Z,32.33
2017-11-08T16:54:31.975Z,28.67
2017-11-08T16:56:59.541Z,34.93
2017-11-08T16:59:27.883Z,33.93
2017-11-08T17:01:55.438Z,33.23
2017-11-08T17:04:22.993Z,38.10
2017-11-08T17:06:50.556Z,37.20
2017-11-08T17:09:18.125Z,39.73
2017-11-08T17:11:45.704Z,33.37
2017-11-08T17:14:13.260Z,42.63
2017-11-08T17:16:40.814Z,34.13
2017-11-08T17:19:08.390Z,30.97
2017-11-08T17:21:35.962Z,38.73
2017-11-08T17:24:03.542Z,39.90
2017-11-08T17:26:55.686Z,37.07
2017-11-08T17:29:24.025Z,28.93
2017-11-08T17:31:51.613Z,31.83
2017-11-08T17:34:19.194Z,30.57
2017-11-08T17:36:46.779Z,33.33
2017-11-08T17:39:15.294Z,27.10
2017-11-08T17:41:42.862Z,25.90
2017-11-08T17:44:10.453Z,33.70
2017-11-08T17:46:38.805Z,43.57
2017-11-08T17:49:06.369Z,40.93
2017-11-08T17:51:33.959Z,36.90
2017-11-08T17:54:02.280Z,38.90
2017-11-08T17:56:29.848Z,60.03
2017-11-08T17:59:00.394Z,42.33
2017-11-08T18:01:27.983Z,32.70
2017-11-08T18:03:55.562Z,46.83
2017-11-08T18:06:23.920Z,29.20
2017-11-08T18:08:51.499Z,32.17
2017-11-08T18:11:19.083Z,36.97
2017-11-08T18:13:46.652Z,33.93
2017-11-08T18:16:15.300Z,33.40
2017-11-08T18:18:42.859Z,37.17
2017-11-08T18:21:11.343Z,31.03
2017-11-08T18:23:38.937Z,29.57
2017-11-08T18:26:06.478Z,28.63
2017-11-08T18:28:34.052Z,31.20
2017-11-08T18:31:02.385Z,27.80
2017-11-08T18:33:30.518Z,30.03
2017-11-08T18:35:58.860Z,26.03
2017-11-08T18:38:26.462Z,28.33
2017-11-08T18:40:54.810Z,27.33
2017-11-08T18:43:22.403Z,24.03
2017-11-08T18:45:50.758Z,23.80
2017-11-08T18:48:18.346Z,28.57
2017-11-08T18:50:46.675Z,26.10
2017-11-08T18:53:14.271Z,25.30
2017-11-08T18:55:41.858Z,26.13
2017-11-08T18:58:09.701Z,24.00
2017-11-08T19:00:38.063Z,24.10
2017-11-08T19:03:07.242Z,23.30
2017-11-08T19:05:36.065Z,24.87
2017-11-08T19:08:05.744Z,26.97
2017-11-08T19:10:36.250Z,32.33
2017-11-08T19:13:07.604Z,27.80
2017-11-08T19:15:35.668Z,38.57
2017-11-08T19:18:03.357Z,49.33
2017-11-08T19:20:31.510Z,66.93
2017-11-08T19:22:59.313Z,38.73
2017-11-08T19:25:27.646Z,71.20
2017-11-08T19:27:55.234Z,63.80
2017-11-08T19:30:24.019Z,57.70
2017-11-08T19:32:55.193Z,33.00
2017-11-08T19:35:23.081Z,28.63
2017-11-08T19:37:51.439Z,28.37
2017-11-08T19:40:20.774Z,25.50
2017-11-08T19:42:48.512Z,28.87
2017-11-08T19:45:16.948Z,30.30
2017-11-08T19:47:48.347Z,22.70
2017-11-08T19:50:17.366Z,22.10
2017-11-08T19:52:46.622Z,29.13
2017-11-08T19:55:16.191Z,26.97
2017-11-08T19:57:43.912Z,23.20
2017-11-08T20:00:16.860Z,24.00
2017-11-08T20:02:49.548Z,28.13
2017-11-08T20:05:19.217Z,28.13
2017-11-08T20:07:51.120Z,34.77
2017-11-08T20:10:19.633Z,32.53
2017-11-08T20:12:49.138Z,45.40
2017-11-08T20:15:21.856Z,43.63
2017-11-08T20:17:53.048Z,39.80
2017-11-08T20:20:23.716Z,35.43
2017-11-08T20:29:45.369Z,27.97
2017-11-08T20:32:18.402Z,24.60
2017-11-08T20:34:46.879Z,34.30
2017-11-08T20:37:16.172Z,24.77
2017-11-08T20:39:47.384Z,34.50
2017-11-08T20:42:14.983Z,32.20
2017-11-08T20:44:46.562Z,34.13
2017-11-08T20:47:15.856Z,31.10
2017-11-08T20:49:44.950Z,35.40
2017-11-08T20:52:13.722Z,28.00
2017-11-08T20:54:42.573Z,26.10
2017-11-08T20:57:10.609Z,27.90
2017-11-08T20:59:39.025Z,28.63
2017-11-08T21:02:07.394Z,31.97
2017-11-08T21:04:35.966Z,26.93
2017-11-08T21:07:04.327Z,27.10
2017-11-08T21:09:31.908Z,23.73
2017-11-08T21:11:59.484Z,29.87
2017-11-08T21:14:27.823Z,25.23
2017-11-08T21:16:55.388Z,27.50
2017-11-08T21:19:23.013Z,31.37
2017-11-08T21:21:50.570Z,30.53
2017-11-08T21:24:18.123Z,32.40
2017-11-08T21:26:46.459Z,29.87
2017-11-08T21:29:14.033Z,38.07
2017-11-08T21:31:41.607Z,39.63
2017-11-08T21:34:09.175Z,34.07
2017-11-08T21:36:37.530Z,30.10
2017-11-08T21:39:05.093Z,41.00
2017-11-08T21:41:32.656Z,34.97
2017-11-08T21:44:00.729Z,36.03
2017-11-08T21:46:28.494Z,32.67
2017-11-08T21:48:56.051Z,33.60
2017-11-08T21:51:23.782Z,37.70
2017-11-08T21:53:51.346Z,44.30
2017-11-08T21:56:18.931Z,38.77
2017-11-08T21:58:46.500Z,37.23
2017-11-08T22:01:14.049Z,38.50
2017-11-08T22:03:41.623Z,39.63
2017-11-08T22:06:09.189Z,45.43
2017-11-08T22:08:36.759Z,39.30
2017-11-08T22:11:05.099Z,44.33
2017-11-08T22:13:32.678Z,37.28
2017-11-08T22:16:00.261Z,39.90
2017-11-08T22:18:28.587Z,39.53
2017-11-08T22:20:56.167Z,45.10
2017-11-08T22:23:23.743Z,46.57
2017-11-08T22:25:51.346Z,46.10
2017-11-08T22:28:18.933Z,42.07
2017-11-08T22:30:46.536Z,43.30
2017-11-08T22:33:14.138Z,47.40
2017-11-08T22:35:41.691Z,43.13
2017-11-08T22:38:09.266Z,45.05
2017-11-08T22:40:36.832Z,41.15
2017-11-08T22:43:05.936Z,53.87
2017-11-08T22:45:33.464Z,46.00
2017-11-08T22:48:01.039Z,50.93
2017-11-08T22:50:29.030Z,47.00
2017-11-08T22:52:56.618Z,48.90
2017-11-08T22:55:24.189Z,42.57
2017-11-08T22:57:52.534Z,48.73
2017-11-08T23:00:20.087Z,48.47
2017-11-08T23:02:47.665Z,44.90
2017-11-08T23:05:16.043Z,49.33
2017-11-08T23:07:43.637Z,48.67
2017-11-08T23:10:11.964Z,50.67
2017-11-08T23:12:39.526Z,50.50
2017-11-08T23:15:07.083Z,52.63
2017-11-08T23:17:35.197Z,52.08
2017-11-08T23:20:03.517Z,48.20
2017-11-08T23:22:31.102Z,51.75
2017-11-08T23:24:58.787Z,51.83
2017-11-08T23:27:27.112Z,52.10
2017-11-08T23:29:54.676Z,52.58
2017-11-08T23:32:22.242Z,55.17
2017-11-08T23:34:49.816Z,56.10
2017-11-08T23:37:17.409Z,55.80
2017-11-08T23:39:45.738Z,53.47
2017-11-08T23:42:13.307Z,56.03
2017-11-08T23:44:40.853Z,51.58
2017-11-08T23:47:08.458Z,53.17
2017-11-08T23:49:36.006Z,54.73
2017-11-08T23:52:03.583Z,50.00
2017-11-08T23:54:37.801Z,49.57
2017-11-08T23:57:05.358Z,51.83
2017-11-08T23:59:32.916Z,63.70
